createdAt,value
2019-04-05T00:01:44.717Z,74.80
2019-04-05T00:04:13.184Z,75.20
2019-04-05T00:06:41.652Z,75.40
2019-04-05T00:09:10.097Z,75.40
2019-04-05T00:11:38.580Z,75.50
2019-04-05T00:14:07.033Z,75.60
2019-04-05T00:16:35.540Z,75.70
2019-04-05T00:19:04.054Z,76.10
2019-04-05T00:21:32.628Z,75.90
2019-04-05T00:24:01.066Z,76.20
2019-04-05T00:26:29.528Z,76.50
2019-04-05T00:28:57.990Z,76.60
2019-04-05T00:31:26.469Z,76.80
2019-04-05T00:33:54.924Z,76.70
2019-04-05T00:36:23.442Z,76.90
2019-04-05T00:38:51.895Z,76.80
2019-04-05T00:41:20.361Z,76.90
2019-04-05T00:43:48.798Z,76.90
2019-04-05T00:46:17.286Z,77.20
2019-04-05T00:48:45.723Z,77.00
2019-04-05T00:51:14.154Z,77.30
2019-04-05T00:53:42.645Z,77.40
2019-04-05T00:56:11.144Z,77.50
2019-04-05T00:58:39.595Z,77.60
2019-04-05T01:01:08.058Z,77.90
2019-04-05T01:03:36.584Z,78.20
2019-04-05T01:06:05.023Z,78.40
2019-04-05T01:08:33.507Z,78.60
2019-04-05T01:11:02.028Z,78.90
2019-04-05T01:13:30.742Z,79.10
2019-04-05T01:15:59.197Z,79.30
2019-04-05T01:18:27.739Z,79.50
2019-04-05T01:20:59.258Z,79.70
2019-04-05T01:23:27.802Z,79.80
2019-04-05T01:25:59.322Z,80.10
2019-04-05T01:28:27.853Z,80.10
2019-04-05T01:30:56.321Z,80.30
2019-04-05T01:33:24.793Z,80.50
2019-04-05T01:35:53.286Z,80.70
2019-04-05T01:38:21.870Z,80.90
2019-04-05T01:40:50.557Z,80.80
2019-04-05T01:43:19.126Z,81.20
2019-04-05T01:45:53.669Z,81.20
2019-04-05T01:48:17.901Z,81.30
2019-04-05T01:50:46.350Z,81.70
2019-04-05T01:53:14.829Z,82.00
2019-04-05T01:55:43.312Z,82.00
2019-04-05T01:58:11.826Z,82.30
2019-04-05T02:00:40.263Z,82.50
2019-04-05T02:03:08.743Z,82.70
2019-04-05T02:05:37.298Z,83.10
2019-04-05T02:08:05.881Z,83.30
2019-04-05T02:10:34.495Z,83.60
2019-04-05T02:13:02.993Z,84.00
2019-04-05T02:15:33.493Z,84.10
2019-04-05T02:18:01.960Z,84.40
2019-04-05T02:20:30.414Z,84.90
2019-04-05T02:22:59.086Z,85.20
2019-04-05T02:25:27.573Z,85.60
2019-04-05T02:27:56.102Z,85.80
2019-04-05T02:30:25.284Z,86.00
2019-04-05T02:32:53.874Z,86.20
2019-04-05T02:35:22.446Z,86.50
2019-04-05T02:37:50.963Z,86.60
2019-04-05T02:40:21.013Z,86.70
2019-04-05T02:42:52.597Z,87.00
2019-04-05T02:45:22.507Z,87.20
2019-04-05T02:47:54.060Z,87.40
2019-04-05T02:50:25.094Z,87.70
2019-04-05T02:52:56.652Z,88.10
2019-04-05T02:55:26.934Z,88.60
2019-04-05T02:57:56.413Z,89.50
2019-04-05T03:00:25.156Z,89.90
2019-04-05T03:02:54.455Z,90.00
2019-04-05T03:05:23.198Z,90.00
2019-04-05T03:07:51.946Z,90.20
2019-04-05T03:10:56.260Z,90.30
2019-04-05T03:13:26.491Z,90.50
2019-04-05T03:15:58.349Z,90.60
2019-04-05T03:18:28.765Z,91.00
2019-04-05T03:21:00.281Z,91.10
2019-04-05T03:23:31.284Z,91.30
2019-04-05T03:26:02.814Z,91.40
2019-04-05T03:28:34.456Z,91.50
2019-04-05T03:31:03.031Z,91.60
2019-04-05T03:33:32.073Z,91.80
2019-04-05T03:36:00.796Z,91.80
2019-04-05T03:38:29.411Z,92.00
2019-04-05T03:40:58.118Z,92.10
2019-04-05T03:43:26.715Z,92.40
2019-04-05T03:45:55.223Z,92.40
2019-04-05T03:50:56.879Z,92.60
2019-04-05T03:53:37.398Z,92.80
2019-04-05T03:56:18.252Z,93.00
2019-04-05T03:58:59.307Z,93.20
2019-04-05T04:01:40.227Z,93.30
2019-04-05T04:04:21.058Z,93.40
2019-04-05T04:07:02.193Z,93.50
2019-04-05T04:09:43.049Z,93.60
2019-04-05T04:12:24.009Z,93.60
2019-04-05T04:15:23.782Z,93.90
2019-04-05T04:18:03.974Z,94.10
2019-04-05T04:24:17.882Z,94.40
2019-04-05T04:27:05.749Z,94.40
2019-04-05T04:29:46.843Z,94.50
2019-04-05T04:32:27.252Z,94.60
2019-04-05T04:35:08.239Z,94.80
2019-04-05T04:37:49.254Z,95.00
2019-04-05T04:40:29.945Z,95.20
2019-04-05T04:43:10.914Z,95.30
2019-04-05T04:45:51.466Z,95.30
2019-04-05T04:48:32.522Z,95.70
2019-04-05T04:51:13.596Z,95.60
2019-04-05T04:53:54.467Z,95.60
2019-04-05T04:56:35.358Z,95.70
2019-04-05T04:59:16.494Z,95.70
2019-04-05T05:01:57.558Z,95.80
2019-04-05T05:04:38.679Z,95.80
2019-04-05T05:07:19.609Z,95.80
2019-04-05T05:10:03.116Z,96.00
2019-04-05T05:12:42.520Z,96.00
2019-04-05T05:15:23.355Z,96.00
2019-04-05T05:18:04.467Z,95.90
2019-04-05T05:20:45.122Z,95.70
2019-04-05T05:23:25.654Z,95.50
2019-04-05T05:26:06.473Z,95.30
2019-04-05T05:28:47.705Z,95.00
2019-04-05T05:31:28.260Z,95.20
2019-04-05T05:34:08.859Z,94.90
2019-04-05T05:36:49.790Z,94.80
2019-04-05T05:39:30.702Z,94.60
2019-04-05T05:42:11.611Z,94.50
2019-04-05T05:44:52.674Z,94.30
2019-04-05T05:47:33.469Z,94.40
2019-04-05T05:50:14.078Z,94.20
2019-04-05T05:52:54.636Z,93.70
2019-04-05T05:55:35.546Z,93.80
2019-04-05T05:58:16.438Z,92.60
2019-04-05T06:00:57.399Z,91.20
2019-04-05T06:03:37.787Z,89.40
2019-04-05T06:06:18.659Z,86.90
2019-04-05T06:08:59.691Z,86.50
2019-04-05T06:11:40.382Z,85.90
2019-04-05T06:14:21.432Z,86.80
2019-04-05T06:17:02.198Z,83.90
2019-04-05T06:19:42.982Z,81.00
2019-04-05T06:22:23.754Z,80.30
2019-04-05T06:25:04.686Z,78.20
2019-04-05T06:27:45.741Z,78.40
2019-04-05T06:30:28.733Z,77.30
2019-04-05T06:33:09.523Z,78.60
2019-04-05T06:35:50.370Z,78.90
2019-04-05T06:38:31.310Z,79.20
2019-04-05T06:41:11.907Z,78.80
2019-04-05T06:43:52.542Z,78.50
2019-04-05T06:46:33.384Z,77.30
2019-04-05T06:49:14.405Z,77.60
2019-04-05T06:51:55.483Z,78.60
2019-04-05T06:54:36.038Z,78.00
2019-04-05T06:57:17.151Z,78.90
2019-04-05T06:59:58.052Z,78.00
2019-04-05T07:02:38.795Z,75.80
2019-04-05T07:05:21.068Z,74.70
2019-04-05T07:08:02.440Z,74.80
2019-04-05T07:10:45.192Z,74.10
2019-04-05T07:13:27.605Z,74.20
2019-04-05T07:16:11.020Z,75.70
2019-04-05T07:18:51.246Z,77.70
2019-04-05T07:21:31.886Z,79.90
2019-04-05T07:24:12.734Z,82.20
2019-04-05T07:26:53.422Z,85.00
2019-04-05T07:29:34.358Z,87.10
2019-04-05T07:32:14.919Z,90.30
2019-04-05T07:34:55.488Z,92.90
2019-04-05T07:37:36.455Z,95.50
2019-04-05T07:40:17.340Z,97.50
2019-04-05T07:42:58.317Z,99.10
2019-04-05T07:45:39.123Z,99.90
2019-04-05T07:48:07.601Z,99.90
2019-04-05T07:50:55.459Z,99.90
2019-04-05T07:53:43.255Z,99.90
2019-04-05T07:56:24.382Z,99.90
2019-04-05T07:59:05.267Z,99.90
2019-04-05T08:01:46.293Z,99.90
2019-04-05T08:04:26.673Z,99.90
2019-04-05T08:07:07.031Z,99.90
2019-04-05T08:09:48.004Z,99.90
2019-04-05T08:15:41.773Z,99.90
2019-04-05T08:18:22.339Z,99.90
2019-04-05T08:21:03.089Z,99.90
2019-04-05T08:23:43.858Z,99.90
2019-04-05T08:26:24.542Z,99.90
2019-04-05T08:29:05.499Z,99.90
2019-04-05T08:31:46.590Z,99.90
2019-04-05T08:34:27.491Z,99.90
2019-04-05T08:37:08.546Z,99.90
2019-04-05T08:39:49.296Z,99.90
2019-04-05T08:42:30.232Z,99.90
2019-04-05T08:45:11.171Z,99.90
2019-04-05T08:47:51.596Z,99.90
2019-04-05T08:50:32.010Z,99.90
2019-04-05T08:53:12.762Z,99.90
2019-04-05T08:55:53.635Z,99.90
2019-04-05T08:58:34.596Z,99.90
2019-04-05T09:01:15.400Z,99.90
2019-04-05T09:03:55.741Z,99.90
2019-04-05T09:06:36.565Z,99.90
2019-04-05T09:09:17.435Z,99.90
2019-04-05T09:11:57.756Z,99.90
2019-04-05T09:14:38.359Z,99.90
2019-04-05T09:17:19.302Z,99.90
2019-04-05T09:20:00.231Z,99.90
2019-04-05T09:22:40.796Z,99.90
2019-04-05T09:25:21.770Z,99.90
2019-04-05T09:28:02.658Z,99.90
2019-04-05T09:30:43.685Z,99.90
2019-04-05T09:33:24.430Z,99.90
2019-04-05T09:36:05.422Z,99.90
2019-04-05T09:38:46.045Z,99.90
2019-04-05T09:41:26.899Z,99.90
2019-04-05T09:44:07.656Z,99.90
2019-04-05T09:46:51.025Z,99.90
2019-04-05T09:49:36.736Z,99.90
2019-04-05T09:52:13.313Z,99.90
2019-04-05T09:54:53.790Z,99.90
2019-04-05T09:57:34.572Z,99.90
2019-04-05T10:00:16.795Z,99.90
2019-04-05T10:02:57.599Z,99.90
2019-04-05T10:05:38.511Z,99.90
2019-04-05T10:08:18.974Z,99.90
2019-04-05T10:10:59.890Z,99.90
2019-04-05T10:13:40.543Z,99.90
2019-04-05T10:16:21.600Z,99.90
2019-04-05T10:19:02.545Z,99.90
2019-04-05T10:21:43.571Z,99.90
2019-04-05T10:24:24.455Z,99.90
2019-04-05T10:27:05.475Z,99.90
2019-04-05T10:29:49.357Z,99.90
2019-04-05T10:32:29.388Z,99.90
2019-04-05T10:35:09.927Z,99.90
2019-04-05T10:37:50.165Z,99.90
2019-04-05T10:40:30.887Z,99.90
2019-04-05T10:43:11.855Z,99.90
2019-04-05T10:45:52.805Z,99.90
2019-04-05T10:48:35.419Z,99.90
2019-04-05T10:51:16.323Z,99.90
2019-04-05T10:53:56.865Z,99.90
2019-04-05T10:56:37.538Z,99.90
2019-04-05T10:59:18.490Z,99.90
2019-04-05T11:01:59.306Z,99.90
2019-04-05T11:04:39.968Z,99.90
2019-04-05T11:07:20.532Z,99.90
2019-04-05T11:12:44.391Z,99.90
2019-04-05T11:15:25.470Z,99.90
2019-04-05T11:18:06.023Z,99.90
2019-04-05T11:20:49.011Z,99.90
2019-04-05T11:23:29.109Z,99.90
2019-04-05T11:26:10.217Z,99.90
2019-04-05T11:28:50.674Z,99.90
2019-04-05T11:31:31.594Z,99.90
2019-04-05T11:34:12.235Z,99.90
2019-04-05T11:36:53.168Z,99.90
2019-04-05T11:39:34.093Z,99.90
2019-04-05T11:42:15.014Z,99.90
2019-04-05T11:44:56.091Z,99.90
2019-04-05T11:47:36.726Z,99.90
2019-04-05T11:50:17.635Z,99.90
2019-04-05T11:52:58.742Z,99.90
2019-04-05T11:55:39.372Z,99.90
2019-04-05T11:58:20.420Z,99.90
2019-04-05T12:01:23.314Z,99.90
2019-04-05T12:04:03.012Z,99.90
2019-04-05T12:06:43.578Z,99.90
2019-04-05T12:09:24.358Z,99.90
2019-04-05T12:12:05.082Z,99.90
2019-04-05T12:14:45.879Z,99.90
2019-04-05T12:17:26.482Z,99.90
2019-04-05T12:20:07.384Z,99.90
2019-04-05T12:22:48.364Z,99.90
2019-04-05T12:25:29.135Z,99.90
2019-04-05T12:28:10.729Z,99.90
2019-04-05T12:30:51.892Z,99.90
2019-04-05T12:33:32.739Z,99.90
2019-04-05T12:36:13.687Z,99.90
2019-04-05T12:38:54.481Z,99.90
2019-04-05T12:41:35.277Z,99.90
2019-04-05T12:44:15.923Z,99.90
2019-04-05T12:46:57.058Z,99.90
2019-04-05T12:49:37.960Z,99.90
2019-04-05T12:52:23.011Z,99.90
2019-04-05T12:55:01.464Z,99.90
2019-04-05T12:57:42.148Z,99.90
2019-04-05T13:00:23.638Z,99.90
2019-04-05T13:03:05.494Z,99.90
2019-04-05T13:05:46.783Z,99.90
2019-04-05T13:08:27.600Z,99.90
2019-04-05T13:11:08.419Z,99.90
2019-04-05T13:13:49.177Z,99.90
2019-04-05T13:16:29.599Z,99.90
2019-04-05T13:19:10.566Z,99.90
2019-04-05T13:21:51.317Z,99.90
2019-04-05T13:24:31.618Z,99.90
2019-04-05T13:27:12.511Z,99.90
2019-04-05T13:29:53.493Z,99.90
2019-04-05T13:32:34.558Z,99.90
2019-04-05T13:35:16.849Z,99.90
2019-04-05T13:37:58.544Z,99.90
2019-04-05T13:40:40.879Z,99.90
2019-04-05T13:43:21.714Z,99.90
2019-04-05T13:46:02.465Z,99.90
2019-04-05T13:48:43.217Z,99.90
2019-04-05T13:51:28.238Z,99.90
2019-04-05T13:54:06.359Z,99.90
2019-04-05T13:56:47.159Z,99.90
2019-04-05T13:59:28.334Z,99.90
2019-04-05T14:02:09.264Z,99.90
2019-04-05T14:04:53.618Z,99.90
2019-04-05T14:07:34.255Z,99.90
2019-04-05T14:10:14.994Z,99.90
2019-04-05T14:12:55.416Z,99.90
2019-04-05T14:18:20.664Z,99.90
2019-04-05T14:21:01.416Z,99.90
2019-04-05T14:23:41.932Z,99.90
2019-04-05T14:26:22.516Z,99.90
2019-04-05T14:29:03.672Z,99.90
2019-04-05T14:31:44.591Z,99.90
2019-04-05T14:34:25.244Z,99.90
2019-04-05T14:37:05.722Z,99.90
2019-04-05T14:39:46.402Z,99.90
2019-04-05T14:42:29.693Z,99.90
2019-04-05T14:45:10.041Z,99.90
2019-04-05T14:47:50.691Z,99.90
2019-04-05T14:50:31.332Z,99.90
2019-04-05T14:53:12.246Z,99.90
2019-04-05T14:55:52.603Z,99.90
2019-04-05T14:58:33.331Z,99.90
2019-04-05T15:01:15.529Z,99.90
2019-04-05T15:03:56.183Z,99.90
2019-04-05T15:06:37.070Z,99.90
2019-04-05T15:09:21.826Z,99.90
2019-04-05T15:12:00.654Z,99.90
2019-04-05T15:14:41.001Z,99.90
2019-04-05T15:17:21.968Z,99.90
2019-04-05T15:20:04.761Z,99.90
2019-04-05T15:22:45.190Z,99.90
2019-04-05T15:25:26.056Z,99.90
2019-04-05T15:28:06.935Z,99.90
2019-04-05T15:30:49.564Z,99.90
2019-04-05T15:33:30.575Z,99.90
2019-04-05T15:36:11.115Z,99.90
2019-04-05T15:38:51.611Z,99.90
2019-04-05T15:41:32.208Z,99.90
2019-04-05T15:44:12.971Z,99.90
2019-04-05T15:46:53.576Z,99.90
2019-04-05T15:49:34.275Z,99.90
2019-04-05T15:52:19.029Z,99.90
2019-04-05T15:54:58.071Z,99.90
2019-04-05T15:57:26.572Z,99.90
2019-04-05T16:03:09.555Z,99.90
2019-04-05T16:05:50.614Z,99.90
2019-04-05T16:08:31.642Z,99.90
2019-04-05T16:11:12.446Z,99.90
2019-04-05T16:13:53.243Z,99.90
2019-04-05T16:16:34.048Z,99.90
2019-04-05T16:19:15.156Z,99.90
2019-04-05T16:21:55.502Z,99.90
2019-04-05T16:24:36.295Z,99.90
2019-04-05T16:27:16.897Z,99.90
2019-04-05T16:29:57.546Z,99.90
2019-04-05T16:32:38.205Z,99.90
2019-04-05T16:35:19.148Z,99.90
2019-04-05T16:38:00.071Z,99.90
2019-04-05T16:40:40.826Z,99.90
2019-04-05T16:43:21.982Z,99.90
2019-04-05T16:46:02.715Z,99.90
2019-04-05T16:48:43.271Z,99.90
2019-04-05T16:51:24.139Z,99.90
2019-04-05T16:54:04.759Z,99.90
2019-04-05T16:56:45.527Z,99.90
2019-04-05T16:59:26.088Z,99.90
2019-04-05T17:02:07.000Z,99.90
2019-04-05T17:04:47.728Z,99.90
2019-04-05T17:07:28.763Z,99.90
2019-04-05T17:10:09.259Z,99.90
2019-04-05T17:12:49.937Z,99.90
2019-04-05T17:15:30.434Z,99.90
2019-04-05T17:18:10.976Z,99.90
2019-04-05T17:20:51.624Z,99.90
2019-04-05T17:23:33.246Z,99.90
2019-04-05T17:26:13.986Z,99.90
2019-04-05T17:28:42.470Z,99.90
2019-04-05T17:31:10.939Z,99.90
2019-04-05T17:33:39.446Z,99.90
2019-04-05T17:36:07.914Z,99.90
2019-04-05T17:38:36.375Z,99.90
2019-04-05T17:41:04.922Z,99.90
2019-04-05T17:43:33.369Z,99.90
2019-04-05T17:46:01.854Z,99.90
2019-04-05T17:48:30.321Z,99.90
2019-04-05T17:50:58.856Z,99.90
2019-04-05T17:53:27.326Z,99.90
2019-04-05T17:55:58.840Z,99.90
2019-04-05T17:58:28.062Z,99.90
2019-04-05T18:00:56.536Z,99.90
2019-04-05T18:03:25.012Z,99.90
2019-04-05T18:05:53.536Z,99.90
2019-04-05T18:08:21.990Z,99.90
2019-04-05T18:10:50.458Z,99.90
2019-04-05T18:13:18.954Z,99.90
2019-04-05T18:15:52.821Z,99.90
2019-04-05T18:18:17.580Z,99.90
2019-04-05T18:20:46.056Z,99.90
2019-04-05T18:23:24.402Z,99.90
2019-04-05T18:25:44.691Z,99.90
2019-04-05T18:28:13.163Z,99.90
2019-04-05T18:30:41.639Z,99.90
2019-04-05T18:33:10.086Z,99.90
2019-04-05T18:35:38.574Z,99.90
2019-04-05T18:38:07.044Z,99.90
2019-04-05T18:40:40.375Z,99.90
2019-04-05T18:43:05.797Z,99.90
2019-04-05T18:45:34.346Z,99.90
2019-04-05T18:48:02.874Z,99.90
2019-04-05T18:50:31.346Z,99.90
2019-04-05T18:52:59.802Z,99.90
2019-04-05T18:55:28.272Z,99.90
2019-04-05T18:57:56.791Z,99.90
2019-04-05T19:00:25.305Z,99.90
2019-04-05T19:02:53.754Z,99.90
2019-04-05T19:05:22.267Z,99.90
2019-04-05T19:07:50.714Z,99.90
2019-04-05T19:10:19.203Z,99.90
2019-04-05T19:12:47.807Z,99.90
2019-04-05T19:15:16.434Z,99.90
2019-04-05T19:17:44.943Z,99.90
2019-04-05T19:20:13.589Z,99.90
2019-04-05T19:22:42.038Z,99.90
2019-04-05T19:25:10.760Z,99.90
2019-04-05T19:27:39.237Z,99.90
2019-04-05T19:50:10.994Z,99.90
2019-04-05T19:52:39.457Z,99.90
2019-04-05T19:55:08.184Z,99.90
2019-04-05T19:57:36.626Z,99.90
2019-04-05T20:00:07.043Z,99.90
2019-04-05T20:02:35.559Z,99.90
2019-04-05T20:05:05.869Z,99.90
2019-04-05T20:07:34.364Z,99.90
2019-04-05T20:10:02.971Z,99.90
2019-04-05T20:12:31.422Z,99.90
2019-04-05T20:14:59.894Z,99.90
2019-04-05T20:17:28.419Z,99.90
2019-04-05T20:19:56.902Z,99.90
2019-04-05T20:22:25.467Z,99.90
2019-04-05T20:24:53.929Z,99.90
2019-04-05T20:27:22.473Z,99.90
2019-04-05T20:29:50.973Z,99.90
2019-04-05T20:32:19.511Z,99.90
2019-04-05T20:34:48.003Z,99.90
2019-04-05T20:37:16.478Z,99.90
2019-04-05T20:39:45.002Z,99.90
2019-04-05T20:42:13.534Z,99.90
2019-04-05T20:44:42.063Z,99.90
2019-04-05T20:47:10.586Z,99.90
2019-04-05T20:49:39.045Z,99.90
2019-04-05T20:52:07.528Z,99.90
2019-04-05T20:54:36.047Z,99.90
2019-04-05T20:57:04.588Z,99.90
2019-04-05T20:59:33.032Z,99.90
2019-04-05T21:02:01.512Z,99.90
2019-04-05T21:04:30.094Z,99.90
2019-04-05T21:06:58.589Z,99.90
2019-04-05T21:09:27.030Z,99.90
2019-04-05T21:11:55.494Z,99.90
2019-04-05T21:14:23.972Z,99.90
2019-04-05T21:16:52.503Z,99.90
2019-04-05T21:19:20.968Z,99.90
2019-04-05T21:21:49.520Z,99.90
2019-04-05T21:24:17.958Z,99.90
2019-04-05T21:26:46.446Z,99.90
2019-04-05T21:29:14.899Z,99.90
2019-04-05T21:31:43.379Z,99.90
2019-04-05T21:34:11.810Z,99.90
2019-04-05T21:36:40.278Z,99.90
2019-04-05T21:39:08.731Z,99.90
2019-04-05T21:41:37.189Z,99.90
2019-04-05T21:44:05.726Z,99.90
2019-04-05T21:46:34.208Z,99.90
2019-04-05T21:49:02.654Z,99.90
2019-04-05T21:51:31.116Z,99.90
2019-04-05T21:53:59.571Z,99.90
2019-04-05T21:56:28.050Z,99.90
2019-04-05T21:58:56.502Z,99.90
2019-04-05T22:01:25.895Z,99.90
2019-04-05T22:03:54.488Z,99.90
2019-04-05T22:06:22.984Z,99.90
2019-04-05T22:08:51.503Z,99.90
2019-04-05T22:11:19.967Z,99.90
2019-04-05T22:13:48.409Z,99.90
2019-04-05T22:16:16.871Z,99.90
2019-04-05T22:18:45.439Z,99.90
2019-04-05T22:21:13.890Z,99.90
2019-04-05T22:23:42.340Z,99.90
2019-04-05T22:26:10.810Z,99.90
2019-04-05T22:28:39.269Z,99.90
2019-04-05T22:31:07.790Z,99.90
2019-04-05T22:33:36.420Z,99.90
2019-04-05T22:36:04.929Z,99.90
2019-04-05T22:38:33.445Z,99.90
2019-04-05T22:41:01.895Z,99.90
2019-04-05T22:43:30.374Z,99.90
2019-04-05T22:45:58.811Z,99.90
2019-04-05T22:48:27.310Z,99.90
2019-04-05T22:50:55.827Z,99.90
2019-04-05T22:53:24.294Z,99.90
2019-04-05T22:55:52.890Z,99.90
2019-04-05T22:58:21.349Z,99.90
2019-04-05T23:00:49.794Z,99.90
2019-04-05T23:03:18.261Z,99.90
2019-04-05T23:05:46.712Z,99.90
2019-04-05T23:08:15.213Z,99.90
2019-04-05T23:10:43.722Z,99.90
2019-04-05T23:13:12.195Z,99.90
2019-04-05T23:15:40.646Z,99.90
2019-04-05T23:18:09.111Z,99.90
2019-04-05T23:20:37.569Z,99.90
2019-04-05T23:23:06.022Z,99.90
2019-04-05T23:25:34.488Z,99.90
2019-04-05T23:28:02.951Z,99.90
2019-04-05T23:30:32.789Z,99.90
2019-04-05T23:33:01.246Z,99.90
2019-04-05T23:35:29.690Z,99.90
2019-04-05T23:37:58.214Z,99.90
2019-04-05T23:40:26.650Z,99.90
2019-04-05T23:42:55.105Z,99.90
2019-04-05T23:45:23.537Z,99.90
2019-04-05T23:47:51.998Z,99.90
2019-04-05T23:50:20.446Z,99.90
2019-04-05T23:52:48.928Z,99.90
2019-04-05T23:55:17.362Z,99.90
2019-04-05T23:57:45.831Z,99.90
